sensor_id;sensor_type;location;lat;lon;timestamp;pressure;altitude;pressure_sealevel;temperature;humidity
68996;BME280;56056;48.990;12.146;2022-07-21T00:01:59;97976.50;;;26.96;40.78
68996;BME280;56056;48.990;12.146;2022-07-21T00:04:25;97969.22;;;26.91;40.79
68996;BME280;56056;48.990;12.146;2022-07-21T00:06:50;97986.47;;;26.75;41.37
68996;BME280;56056;48.990;12.146;2022-07-21T00:09:16;97988.63;;;26.73;41.61
68996;BME280;56056;48.990;12.146;2022-07-21T00:11:43;97992.94;;;26.64;40.99
68996;BME280;56056;48.990;12.146;2022-07-21T00:14:09;97979.75;;;26.52;41.29
68996;BME280;56056;48.990;12.146;2022-07-21T00:16:35;97967.63;;;26.29;41.22
68996;BME280;56056;48.990;12.146;2022-07-21T00:19:01;97988.06;;;26.35;41.63
68996;BME280;56056;48.990;12.146;2022-07-21T00:21:26;97994.50;;;26.29;41.57
68996;BME280;56056;48.990;12.146;2022-07-21T00:23:52;97988.63;;;26.22;41.65
68996;BME280;56056;48.990;12.146;2022-07-21T00:26:17;97993.97;;;26.12;41.79
68996;BME280;56056;48.990;12.146;2022-07-21T00:28:44;97985.91;;;26.06;41.92
68996;BME280;56056;48.990;12.146;2022-07-21T00:31:09;97995.56;;;26.07;41.46
68996;BME280;56056;48.990;12.146;2022-07-21T00:33:35;97991.81;;;26.08;41.85
68996;BME280;56056;48.990;12.146;2022-07-21T00:36:00;97988.31;;;26.08;41.70
68996;BME280;56056;48.990;12.146;2022-07-21T00:38:26;97987.50;;;26.07;41.40
68996;BME280;56056;48.990;12.146;2022-07-21T00:40:53;97982.94;;;26.08;41.13
68996;BME280;56056;48.990;12.146;2022-07-21T00:43:18;97973.25;;;26.12;41.48
68996;BME280;56056;48.990;12.146;2022-07-21T00:45:45;97950.94;;;26.17;41.42
68996;BME280;56056;48.990;12.146;2022-07-21T00:48:10;97932.91;;;26.17;41.16
68996;BME280;56056;48.990;12.146;2022-07-21T00:50:36;97913.28;;;26.12;40.98
68996;BME280;56056;48.990;12.146;2022-07-21T00:53:02;97892.88;;;26.10;41.34
68996;BME280;56056;48.990;12.146;2022-07-21T00:55:27;97879.13;;;26.12;41.33
68996;BME280;56056;48.990;12.146;2022-07-21T00:57:53;97888.53;;;26.09;41.00
68996;BME280;56056;48.990;12.146;2022-07-21T01:00:20;97890.72;;;26.07;41.38
68996;BME280;56056;48.990;12.146;2022-07-21T01:02:47;97887.47;;;26.05;40.97
68996;BME280;56056;48.990;12.146;2022-07-21T01:05:14;97888.00;;;26.07;40.99
68996;BME280;56056;48.990;12.146;2022-07-21T01:07:46;97910.34;;;26.08;41.20
68996;BME280;56056;48.990;12.146;2022-07-21T01:10:13;97917.59;;;26.07;41.39
68996;BME280;56056;48.990;12.146;2022-07-21T01:12:39;97920.00;;;26.09;41.54
68996;BME280;56056;48.990;12.146;2022-07-21T01:15:06;97920.28;;;26.07;41.51
68996;BME280;56056;48.990;12.146;2022-07-21T01:17:33;97913.28;;;26.06;41.50
68996;BME280;56056;48.990;12.146;2022-07-21T01:20:02;97915.97;;;26.01;41.19
68996;BME280;56056;48.990;12.146;2022-07-21T01:22:29;97898.75;;;25.97;41.71
68996;BME280;56056;48.990;12.146;2022-07-21T01:24:55;97896.34;;;26.01;41.83
68996;BME280;56056;48.990;12.146;2022-07-21T01:27:23;97899.31;;;26.04;41.39
68996;BME280;56056;48.990;12.146;2022-07-21T01:29:49;97881.03;;;25.96;41.71
68996;BME280;56056;48.990;12.146;2022-07-21T01:32:14;97879.94;;;26.07;41.79
68996;BME280;56056;48.990;12.146;2022-07-21T01:34:39;97871.31;;;26.05;41.71
68996;BME280;56056;48.990;12.146;2022-07-21T01:37:05;97861.94;;;26.03;42.15
68996;BME280;56056;48.990;12.146;2022-07-21T01:39:32;97857.38;;;25.98;41.84
68996;BME280;56056;48.990;12.146;2022-07-21T01:42:16;97834.50;;;25.80;42.76
68996;BME280;56056;48.990;12.146;2022-07-21T01:44:41;97830.44;;;25.73;42.52
68996;BME280;56056;48.990;12.146;2022-07-21T01:47:07;97827.75;;;25.73;43.18
68996;BME280;56056;48.990;12.146;2022-07-21T01:49:32;97807.88;;;25.69;42.98
68996;BME280;56056;48.990;12.146;2022-07-21T01:51:58;97818.06;;;25.67;42.95
68996;BME280;56056;48.990;12.146;2022-07-21T01:54:23;97833.13;;;25.62;43.00
68996;BME280;56056;48.990;12.146;2022-07-21T01:56:51;97853.28;;;25.60;43.26
68996;BME280;56056;48.990;12.146;2022-07-21T01:59:16;97849.78;;;25.59;42.97
68996;BME280;56056;48.990;12.146;2022-07-21T02:01:42;97854.63;;;25.57;42.83
68996;BME280;56056;48.990;12.146;2022-07-21T02:04:07;97841.47;;;25.61;42.96
68996;BME280;56056;48.990;12.146;2022-07-21T02:06:33;97822.38;;;25.57;42.70
68996;BME280;56056;48.990;12.146;2022-07-21T02:08:58;97829.63;;;25.62;42.87
68996;BME280;56056;48.990;12.146;2022-07-21T02:11:24;97835.03;;;25.67;42.74
68996;BME280;56056;48.990;12.146;2022-07-21T02:13:51;97838.22;;;25.69;42.71
68996;BME280;56056;48.990;12.146;2022-07-21T02:16:16;97842.25;;;25.61;42.71
68996;BME280;56056;48.990;12.146;2022-07-21T02:18:43;97859.44;;;25.40;43.56
68996;BME280;56056;48.990;12.146;2022-07-21T02:21:08;97857.78;;;25.29;43.85
68996;BME280;56056;48.990;12.146;2022-07-21T02:23:34;97890.06;;;25.44;43.75
68996;BME280;56056;48.990;12.146;2022-07-21T02:26:00;97892.19;;;25.47;43.36
68996;BME280;56056;48.990;12.146;2022-07-21T02:28:26;97899.44;;;25.42;43.75
68996;BME280;56056;48.990;12.146;2022-07-21T02:30:53;97918.53;;;25.40;44.27
68996;BME280;56056;48.990;12.146;2022-07-21T02:33:19;97914.66;;;25.16;44.50
68996;BME280;56056;48.990;12.146;2022-07-21T02:35:45;97907.16;;;25.18;44.55
68996;BME280;56056;48.990;12.146;2022-07-21T02:38:11;97906.78;;;25.04;45.35
68996;BME280;56056;48.990;12.146;2022-07-21T02:40:37;97904.38;;;25.07;45.54
68996;BME280;56056;48.990;12.146;2022-07-21T02:43:03;97902.72;;;24.91;45.34
68996;BME280;56056;48.990;12.146;2022-07-21T02:45:29;97903.22;;;24.93;45.42
68996;BME280;56056;48.990;12.146;2022-07-21T02:48:00;97913.03;;;25.09;45.83
68996;BME280;56056;48.990;12.146;2022-07-21T02:50:28;97921.09;;;25.09;47.06
68996;BME280;56056;48.990;12.146;2022-07-21T02:52:54;97931.72;;;24.99;48.03
68996;BME280;56056;48.990;12.146;2022-07-21T02:55:21;97928.47;;;24.92;47.72
68996;BME280;56056;48.990;12.146;2022-07-21T02:57:46;97935.91;;;24.75;47.58
68996;BME280;56056;48.990;12.146;2022-07-21T03:00:12;97947.34;;;24.65;47.68
68996;BME280;56056;48.990;12.146;2022-07-21T03:02:37;97944.88;;;24.58;47.66
68996;BME280;56056;48.990;12.146;2022-07-21T03:05:05;97942.78;;;24.60;47.84
68996;BME280;56056;48.990;12.146;2022-07-21T03:07:30;97940.13;;;24.65;47.53
68996;BME280;56056;48.990;12.146;2022-07-21T03:09:56;97925.06;;;24.59;46.69
68996;BME280;56056;48.990;12.146;2022-07-21T03:12:21;97941.66;;;24.56;47.59
68996;BME280;56056;48.990;12.146;2022-07-21T03:14:47;97934.63;;;24.45;47.54
68996;BME280;56056;48.990;12.146;2022-07-21T03:17:12;97927.13;;;24.47;47.76
68996;BME280;56056;48.990;12.146;2022-07-21T03:19:38;97927.59;;;24.39;47.82
68996;BME280;56056;48.990;12.146;2022-07-21T03:22:05;97941.00;;;24.39;48.35
68996;BME280;56056;48.990;12.146;2022-07-21T03:24:30;97949.47;;;24.31;48.42
68996;BME280;56056;48.990;12.146;2022-07-21T03:26:56;97955.91;;;24.30;48.40
68996;BME280;56056;48.990;12.146;2022-07-21T03:29:22;97960.75;;;24.28;47.93
68996;BME280;56056;48.990;12.146;2022-07-21T03:31:47;97967.72;;;24.29;48.13
68996;BME280;56056;48.990;12.146;2022-07-21T03:34:13;97975.13;;;24.16;48.51
68996;BME280;56056;48.990;12.146;2022-07-21T03:36:38;97977.97;;;24.05;48.84
68996;BME280;56056;48.990;12.146;2022-07-21T03:39:05;97969.22;;;23.92;49.42
68996;BME280;56056;48.990;12.146;2022-07-21T03:41:30;97968.75;;;23.96;49.55
68996;BME280;56056;48.990;12.146;2022-07-21T03:43:56;97968.69;;;23.90;50.07
68996;BME280;56056;48.990;12.146;2022-07-21T03:46:22;97975.34;;;23.88;50.15
68996;BME280;56056;48.990;12.146;2022-07-21T03:48:47;97985.31;;;23.92;50.14
68996;BME280;56056;48.990;12.146;2022-07-21T03:51:12;97990.75;;;23.98;49.93
68996;BME280;56056;48.990;12.146;2022-07-21T03:53:38;97984.59;;;23.97;50.12
68996;BME280;56056;48.990;12.146;2022-07-21T03:56:05;97985.56;;;23.91;50.41
68996;BME280;56056;48.990;12.146;2022-07-21T03:58:31;97980.78;;;23.93;50.34
68996;BME280;56056;48.990;12.146;2022-07-21T04:00:56;97990.53;;;24.04;50.25
68996;BME280;56056;48.990;12.146;2022-07-21T04:03:22;97989.19;;;24.02;50.49
68996;BME280;56056;48.990;12.146;2022-07-21T04:05:47;98001.25;;;24.04;50.57
68996;BME280;56056;48.990;12.146;2022-07-21T04:08:13;98001.69;;;23.96;50.61
68996;BME280;56056;48.990;12.146;2022-07-21T04:10:41;97990.38;;;23.89;51.16
68996;BME280;56056;48.990;12.146;2022-07-21T04:13:09;97992.81;;;23.90;51.63
68996;BME280;56056;48.990;12.146;2022-07-21T04:15:35;98001.41;;;23.92;51.71
68996;BME280;56056;48.990;12.146;2022-07-21T04:18:01;97999.59;;;23.98;51.75
68996;BME280;56056;48.990;12.146;2022-07-21T04:20:26;97979.25;;;24.02;51.74
68996;BME280;56056;48.990;12.146;2022-07-21T04:22:52;98002.81;;;24.00;51.80
68996;BME280;56056;48.990;12.146;2022-07-21T04:25:18;98005.34;;;23.85;52.34
68996;BME280;56056;48.990;12.146;2022-07-21T04:27:45;98012.72;;;24.00;52.46
68996;BME280;56056;48.990;12.146;2022-07-21T04:30:14;98019.78;;;23.84;52.78
68996;BME280;56056;48.990;12.146;2022-07-21T04:32:40;98024.41;;;23.88;52.74
68996;BME280;56056;48.990;12.146;2022-07-21T04:35:07;98015.63;;;23.93;51.94
68996;BME280;56056;48.990;12.146;2022-07-21T04:37:33;98009.13;;;23.89;52.72
68996;BME280;56056;48.990;12.146;2022-07-21T04:39:59;98007.59;;;23.93;52.17
68996;BME280;56056;48.990;12.146;2022-07-21T04:42:24;98013.53;;;24.00;52.11
68996;BME280;56056;48.990;12.146;2022-07-21T04:44:49;98010.44;;;24.08;51.58
68996;BME280;56056;48.990;12.146;2022-07-21T04:47:16;98011.00;;;24.15;51.66
68996;BME280;56056;48.990;12.146;2022-07-21T04:49:42;98010.50;;;24.19;51.54
68996;BME280;56056;48.990;12.146;2022-07-21T04:52:07;98009.19;;;24.21;51.19
68996;BME280;56056;48.990;12.146;2022-07-21T04:54:33;98018.41;;;24.30;51.20
68996;BME280;56056;48.990;12.146;2022-07-21T04:56:58;98033.28;;;24.43;51.41
68996;BME280;56056;48.990;12.146;2022-07-21T04:59:24;98041.63;;;24.47;51.82
68996;BME280;56056;48.990;12.146;2022-07-21T05:01:50;98041.75;;;24.62;52.07
68996;BME280;56056;48.990;12.146;2022-07-21T05:04:16;98036.75;;;24.71;52.18
68996;BME280;56056;48.990;12.146;2022-07-21T05:06:42;98037.13;;;24.84;51.69
68996;BME280;56056;48.990;12.146;2022-07-21T05:09:07;98039.09;;;24.99;50.55
68996;BME280;56056;48.990;12.146;2022-07-21T05:11:33;98047.28;;;25.09;50.74
68996;BME280;56056;48.990;12.146;2022-07-21T05:13:58;98050.78;;;25.15;49.65
68996;BME280;56056;48.990;12.146;2022-07-21T05:16:24;98063.47;;;24.93;50.75
68996;BME280;56056;48.990;12.146;2022-07-21T05:18:49;98058.69;;;24.95;51.13
68996;BME280;56056;48.990;12.146;2022-07-21T05:21:16;98056.59;;;25.02;50.09
68996;BME280;56056;48.990;12.146;2022-07-21T05:23:42;98072.34;;;24.93;50.14
68996;BME280;56056;48.990;12.146;2022-07-21T05:26:07;98061.91;;;24.64;51.13
68996;BME280;56056;48.990;12.146;2022-07-21T05:28:32;98073.50;;;24.70;51.37
68996;BME280;56056;48.990;12.146;2022-07-21T05:30:58;98073.75;;;24.69;51.19
68996;BME280;56056;48.990;12.146;2022-07-21T05:33:23;98081.34;;;24.77;51.25
68996;BME280;56056;48.990;12.146;2022-07-21T05:35:49;98088.69;;;24.86;50.92
68996;BME280;56056;48.990;12.146;2022-07-21T05:38:16;98086.06;;;24.97;50.91
68996;BME280;56056;48.990;12.146;2022-07-21T05:40:41;98091.03;;;25.10;50.71
68996;BME280;56056;48.990;12.146;2022-07-21T05:43:06;98095.00;;;25.07;50.54
68996;BME280;56056;48.990;12.146;2022-07-21T05:45:32;98089.84;;;25.01;50.34
68996;BME280;56056;48.990;12.146;2022-07-21T05:47:57;98106.72;;;24.96;50.94
68996;BME280;56056;48.990;12.146;2022-07-21T05:50:23;98094.69;;;24.99;51.53
68996;BME280;56056;48.990;12.146;2022-07-21T05:52:49;98095.13;;;25.18;50.48
68996;BME280;56056;48.990;12.146;2022-07-21T05:55:16;98110.84;;;25.41;50.43
68996;BME280;56056;48.990;12.146;2022-07-21T05:57:41;98108.59;;;25.28;50.33
68996;BME280;56056;48.990;12.146;2022-07-21T06:00:08;98106.91;;;25.17;50.60
68996;BME280;56056;48.990;12.146;2022-07-21T06:02:33;98106.09;;;25.53;50.13
68996;BME280;56056;48.990;12.146;2022-07-21T06:04:59;98107.25;;;25.73;48.95
68996;BME280;56056;48.990;12.146;2022-07-21T06:07:25;98113.25;;;25.43;50.18
68996;BME280;56056;48.990;12.146;2022-07-21T06:09:50;98124.16;;;25.21;50.28
68996;BME280;56056;48.990;12.146;2022-07-21T06:12:17;98127.69;;;24.99;51.18
68996;BME280;56056;48.990;12.146;2022-07-21T06:14:43;98145.44;;;24.46;53.04
68996;BME280;56056;48.990;12.146;2022-07-21T06:17:08;98137.91;;;24.21;53.84
68996;BME280;56056;48.990;12.146;2022-07-21T06:19:34;98148.97;;;24.08;54.86
68996;BME280;56056;48.990;12.146;2022-07-21T06:21:59;98153.13;;;23.94;55.13
68996;BME280;56056;48.990;12.146;2022-07-21T06:24:25;98144.88;;;23.78;55.48
68996;BME280;56056;48.990;12.146;2022-07-21T06:26:52;98143.31;;;23.65;56.22
68996;BME280;56056;48.990;12.146;2022-07-21T06:29:19;98146.53;;;23.84;55.68
68996;BME280;56056;48.990;12.146;2022-07-21T06:31:44;98148.56;;;23.94;57.43
68996;BME280;56056;48.990;12.146;2022-07-21T06:34:10;98144.75;;;23.90;58.42
68996;BME280;56056;48.990;12.146;2022-07-21T06:36:35;98147.06;;;23.81;59.32
68996;BME280;56056;48.990;12.146;2022-07-21T06:39:01;98156.88;;;23.76;60.28
68996;BME280;56056;48.990;12.146;2022-07-21T06:41:26;98192.75;;;23.58;60.33
68996;BME280;56056;48.990;12.146;2022-07-21T06:43:52;98191.38;;;23.38;60.93
68996;BME280;56056;48.990;12.146;2022-07-21T06:46:18;98179.63;;;23.23;61.51
68996;BME280;56056;48.990;12.146;2022-07-21T06:48:44;98178.81;;;23.22;62.52
68996;BME280;56056;48.990;12.146;2022-07-21T06:51:09;98161.53;;;23.30;62.42
68996;BME280;56056;48.990;12.146;2022-07-21T06:53:35;98159.84;;;23.24;62.45
68996;BME280;56056;48.990;12.146;2022-07-21T06:56:00;98171.03;;;23.21;62.23
68996;BME280;56056;48.990;12.146;2022-07-21T06:58:26;98156.75;;;22.98;65.53
68996;BME280;56056;48.990;12.146;2022-07-21T07:00:53;98143.72;;;22.73;65.54
68996;BME280;56056;48.990;12.146;2022-07-21T07:03:20;98143.66;;;22.56;66.96
68996;BME280;56056;48.990;12.146;2022-07-21T07:05:47;98158.22;;;22.49;67.24
68996;BME280;56056;48.990;12.146;2022-07-21T07:08:13;98161.53;;;22.39;67.86
68996;BME280;56056;48.990;12.146;2022-07-21T07:10:38;98166.66;;;22.29;68.45
68996;BME280;56056;48.990;12.146;2022-07-21T07:13:04;98171.22;;;22.28;68.32
68996;BME280;56056;48.990;12.146;2022-07-21T07:15:30;98171.47;;;22.27;68.54
68996;BME280;56056;48.990;12.146;2022-07-21T07:17:55;98165.06;;;22.28;69.47
68996;BME280;56056;48.990;12.146;2022-07-21T07:20:22;98175.25;;;22.42;69.93
68996;BME280;56056;48.990;12.146;2022-07-21T07:22:48;98166.66;;;22.57;69.19
68996;BME280;56056;48.990;12.146;2022-07-21T07:25:14;98155.34;;;22.50;70.06
68996;BME280;56056;48.990;12.146;2022-07-21T07:27:42;98162.38;;;22.56;69.15
68996;BME280;56056;48.990;12.146;2022-07-21T07:30:09;98167.72;;;22.56;69.34
68996;BME280;56056;48.990;12.146;2022-07-21T07:32:35;98176.34;;;22.58;69.47
68996;BME280;56056;48.990;12.146;2022-07-21T07:35:00;98181.47;;;22.48;68.49
68996;BME280;56056;48.990;12.146;2022-07-21T07:37:27;98175.81;;;22.44;70.03
68996;BME280;56056;48.990;12.146;2022-07-21T07:39:52;98170.41;;;22.56;68.92
68996;BME280;56056;48.990;12.146;2022-07-21T07:42:18;98172.13;;;22.62;68.73
68996;BME280;56056;48.990;12.146;2022-07-21T07:44:43;98175.28;;;22.59;68.16
68996;BME280;56056;48.990;12.146;2022-07-21T07:47:10;98186.63;;;22.50;67.44
68996;BME280;56056;48.990;12.146;2022-07-21T07:49:35;98189.50;;;22.48;67.78
68996;BME280;56056;48.990;12.146;2022-07-21T07:52:01;98190.47;;;22.70;67.83
68996;BME280;56056;48.990;12.146;2022-07-21T07:54:29;98186.09;;;22.93;67.52
68996;BME280;56056;48.990;12.146;2022-07-21T07:56:54;98185.97;;;23.16;65.15
68996;BME280;56056;48.990;12.146;2022-07-21T07:59:20;98189.47;;;23.67;65.01
68996;BME280;56056;48.990;12.146;2022-07-21T08:01:45;98182.91;;;23.97;64.96
68996;BME280;56056;48.990;12.146;2022-07-21T08:04:11;98184.34;;;24.27;63.90
68996;BME280;56056;48.990;12.146;2022-07-21T08:06:36;98178.75;;;24.50;62.61
68996;BME280;56056;48.990;12.146;2022-07-21T08:09:02;98180.25;;;24.41;62.11
68996;BME280;56056;48.990;12.146;2022-07-21T08:11:29;98190.31;;;24.34;60.96
68996;BME280;56056;48.990;12.146;2022-07-21T08:13:54;98196.75;;;24.33;62.32
68996;BME280;56056;48.990;12.146;2022-07-21T08:16:20;98196.97;;;24.48;60.34
68996;BME280;56056;48.990;12.146;2022-07-21T08:18:45;98197.78;;;24.49;60.34
68996;BME280;56056;48.990;12.146;2022-07-21T08:21:11;98203.81;;;24.88;59.88
68996;BME280;56056;48.990;12.146;2022-07-21T08:23:37;98206.56;;;24.93;58.52
68996;BME280;56056;48.990;12.146;2022-07-21T08:26:02;98207.78;;;25.07;56.24
68996;BME280;56056;48.990;12.146;2022-07-21T08:28:29;98210.47;;;25.07;57.21
68996;BME280;56056;48.990;12.146;2022-07-21T08:30:54;98208.44;;;24.93;58.40
68996;BME280;56056;48.990;12.146;2022-07-21T08:33:20;98206.00;;;24.91;58.49
68996;BME280;56056;48.990;12.146;2022-07-21T08:35:45;98219.44;;;24.91;58.98
68996;BME280;56056;48.990;12.146;2022-07-21T08:38:11;98210.31;;;24.92;58.20
68996;BME280;56056;48.990;12.146;2022-07-21T08:40:39;98220.56;;;24.73;57.75
68996;BME280;56056;48.990;12.146;2022-07-21T08:43:05;98219.28;;;24.54;58.57
68996;BME280;56056;48.990;12.146;2022-07-21T08:45:33;98230.69;;;24.22;59.11
68996;BME280;56056;48.990;12.146;2022-07-21T08:47:59;98230.03;;;23.93;61.16
68996;BME280;56056;48.990;12.146;2022-07-21T08:50:25;98226.34;;;23.99;60.50
68996;BME280;56056;48.990;12.146;2022-07-21T08:52:51;98233.63;;;23.82;60.51
68996;BME280;56056;48.990;12.146;2022-07-21T08:55:17;98239.69;;;23.60;62.14
68996;BME280;56056;48.990;12.146;2022-07-21T08:57:42;98230.91;;;23.31;62.02
68996;BME280;56056;48.990;12.146;2022-07-21T09:00:09;98245.25;;;23.42;62.51
68996;BME280;56056;48.990;12.146;2022-07-21T09:02:38;98240.50;;;23.44;62.35
68996;BME280;56056;48.990;12.146;2022-07-21T09:05:06;98237.81;;;23.44;62.07
68996;BME280;56056;48.990;12.146;2022-07-21T09:07:46;98248.59;;;23.32;61.88
68996;BME280;56056;48.990;12.146;2022-07-21T09:10:12;98244.38;;;23.36;62.15
68996;BME280;56056;48.990;12.146;2022-07-21T09:12:48;98257.28;;;23.39;62.22
68996;BME280;56056;48.990;12.146;2022-07-21T09:15:14;98243.72;;;23.46;62.04
68996;BME280;56056;48.990;12.146;2022-07-21T09:17:42;98236.44;;;23.58;62.47
68996;BME280;56056;48.990;12.146;2022-07-21T09:20:21;98248.38;;;23.84;60.38
68996;BME280;56056;48.990;12.146;2022-07-21T09:23:01;98240.97;;;23.91;61.84
68996;BME280;56056;48.990;12.146;2022-07-21T09:25:34;98236.22;;;24.15;60.92
68996;BME280;56056;48.990;12.146;2022-07-21T09:28:07;98241.28;;;24.34;60.16
68996;BME280;56056;48.990;12.146;2022-07-21T09:30:47;98239.03;;;24.26;60.09
68996;BME280;56056;48.990;12.146;2022-07-21T09:33:21;98237.13;;;24.04;59.97
68996;BME280;56056;48.990;12.146;2022-07-21T09:35:58;98240.16;;;23.91;60.09
68996;BME280;56056;48.990;12.146;2022-07-21T09:38:25;98246.38;;;23.75;60.72
68996;BME280;56056;48.990;12.146;2022-07-21T09:40:51;98247.50;;;23.62;61.10
68996;BME280;56056;48.990;12.146;2022-07-21T09:43:38;98249.09;;;23.63;60.97
68996;BME280;56056;48.990;12.146;2022-07-21T09:46:09;98248.28;;;23.62;60.46
68996;BME280;56056;48.990;12.146;2022-07-21T09:48:38;98246.22;;;23.81;62.52
68996;BME280;56056;48.990;12.146;2022-07-21T09:51:24;98238.03;;;24.10;60.55
68996;BME280;56056;48.990;12.146;2022-07-21T09:53:51;98235.22;;;24.22;59.36
68996;BME280;56056;48.990;12.146;2022-07-21T09:56:18;98236.09;;;24.05;60.30
68996;BME280;56056;48.990;12.146;2022-07-21T09:58:45;98239.91;;;23.92;60.74
68996;BME280;56056;48.990;12.146;2022-07-21T10:01:11;98241.94;;;24.02;61.12
68996;BME280;56056;48.990;12.146;2022-07-21T10:03:38;98239.78;;;24.21;60.25
68996;BME280;56056;48.990;12.146;2022-07-21T10:06:04;98237.47;;;24.30;60.13
68996;BME280;56056;48.990;12.146;2022-07-21T10:08:32;98245.16;;;24.04;59.42
68996;BME280;56056;48.990;12.146;2022-07-21T10:10:59;98247.25;;;23.97;60.15
68996;BME280;56056;48.990;12.146;2022-07-21T10:13:24;98255.88;;;24.04;60.63
68996;BME280;56056;48.990;12.146;2022-07-21T10:15:50;98248.38;;;24.01;59.49
68996;BME280;56056;48.990;12.146;2022-07-21T10:18:32;98266.66;;;23.87;60.14
68996;BME280;56056;48.990;12.146;2022-07-21T10:21:04;98262.50;;;23.80;61.10
68996;BME280;56056;48.990;12.146;2022-07-21T10:23:36;98258.22;;;23.79;60.99
68996;BME280;56056;48.990;12.146;2022-07-21T10:26:02;98258.69;;;23.76;61.34
68996;BME280;56056;48.990;12.146;2022-07-21T10:28:31;98260.00;;;23.90;61.17
68996;BME280;56056;48.990;12.146;2022-07-21T10:30:58;98257.47;;;23.83;60.44
68996;BME280;56056;48.990;12.146;2022-07-21T10:33:51;98264.31;;;23.74;61.08
68996;BME280;56056;48.990;12.146;2022-07-21T10:36:42;98256.56;;;23.61;60.22
68996;BME280;56056;48.990;12.146;2022-07-21T10:39:19;98252.00;;;23.61;60.29
68996;BME280;56056;48.990;12.146;2022-07-21T10:41:47;98261.44;;;23.64;59.88
68996;BME280;56056;48.990;12.146;2022-07-21T10:44:37;98261.19;;;23.65;60.33
68996;BME280;56056;48.990;12.146;2022-07-21T10:47:06;98257.09;;;23.75;60.23
68996;BME280;56056;48.990;12.146;2022-07-21T10:49:45;98250.56;;;23.87;59.72
68996;BME280;56056;48.990;12.146;2022-07-21T10:55:17;98238.47;;;24.40;58.72
68996;BME280;56056;48.990;12.146;2022-07-21T10:58:09;98257.72;;;24.59;57.91
68996;BME280;56056;48.990;12.146;2022-07-21T11:00:35;98259.22;;;24.72;57.43
68996;BME280;56056;48.990;12.146;2022-07-21T11:03:03;98257.34;;;24.73;57.86
68996;BME280;56056;48.990;12.146;2022-07-21T11:05:31;98263.19;;;24.70;57.33
68996;BME280;56056;48.990;12.146;2022-07-21T11:08:17;98256.66;;;24.82;57.82
68996;BME280;56056;48.990;12.146;2022-07-21T11:10:46;98254.41;;;25.01;57.89
68996;BME280;56056;48.990;12.146;2022-07-21T11:13:13;98259.13;;;24.89;55.89
68996;BME280;56056;48.990;12.146;2022-07-21T11:15:57;98258.28;;;24.61;56.87
68996;BME280;56056;48.990;12.146;2022-07-21T11:18:24;98260.84;;;24.51;56.63
68996;BME280;56056;48.990;12.146;2022-07-21T11:21:08;98264.56;;;24.50;56.96
68996;BME280;56056;48.990;12.146;2022-07-21T11:23:35;98261.63;;;24.30;57.37
68996;BME280;56056;48.990;12.146;2022-07-21T11:26:02;98262.00;;;24.38;57.57
68996;BME280;56056;48.990;12.146;2022-07-21T11:28:28;98269.16;;;24.33;58.32
68996;BME280;56056;48.990;12.146;2022-07-21T11:31:15;98258.97;;;24.13;56.91
68996;BME280;56056;48.990;12.146;2022-07-21T11:33:43;98265.81;;;24.04;57.61
68996;BME280;56056;48.990;12.146;2022-07-21T11:36:10;98262.56;;;24.02;58.65
68996;BME280;56056;48.990;12.146;2022-07-21T11:38:36;98262.25;;;23.98;57.67
68996;BME280;56056;48.990;12.146;2022-07-21T11:41:16;98266.22;;;24.12;58.75
68996;BME280;56056;48.990;12.146;2022-07-21T11:43:45;98265.38;;;24.12;57.98
68996;BME280;56056;48.990;12.146;2022-07-21T11:46:11;98267.03;;;23.96;59.32
68996;BME280;56056;48.990;12.146;2022-07-21T11:48:37;98270.72;;;23.90;59.61
68996;BME280;56056;48.990;12.146;2022-07-21T11:51:03;98268.44;;;23.82;60.30
68996;BME280;56056;48.990;12.146;2022-07-21T11:53:29;98260.16;;;23.83;60.30
68996;BME280;56056;48.990;12.146;2022-07-21T11:55:55;98256.00;;;23.92;60.44
68996;BME280;56056;48.990;12.146;2022-07-21T11:58:21;98267.28;;;23.95;59.98
68996;BME280;56056;48.990;12.146;2022-07-21T12:00:47;98264.50;;;24.06;60.07
68996;BME280;56056;48.990;12.146;2022-07-21T12:03:13;98262.47;;;23.97;60.02
68996;BME280;56056;48.990;12.146;2022-07-21T12:05:39;98254.22;;;23.98;61.27
68996;BME280;56056;48.990;12.146;2022-07-21T12:08:05;98254.19;;;24.37;61.12
68996;BME280;56056;48.990;12.146;2022-07-21T12:10:31;98248.59;;;25.69;57.59
68996;BME280;56056;48.990;12.146;2022-07-21T12:12:58;98246.66;;;25.96;56.15
68996;BME280;56056;48.990;12.146;2022-07-21T12:15:27;98250.72;;;26.46;53.32
68996;BME280;56056;48.990;12.146;2022-07-21T12:17:56;98248.19;;;26.97;52.17
68996;BME280;56056;48.990;12.146;2022-07-21T12:20:26;98233.75;;;27.49;48.30
68996;BME280;56056;48.990;12.146;2022-07-21T12:22:52;98238.06;;;27.81;49.65
68996;BME280;56056;48.990;12.146;2022-07-21T12:25:30;98243.63;;;28.20;47.68
68996;BME280;56056;48.990;12.146;2022-07-21T12:27:56;98242.78;;;28.40;46.75
68996;BME280;56056;48.990;12.146;2022-07-21T12:30:34;98241.72;;;28.26;45.40
68996;BME280;56056;48.990;12.146;2022-07-21T12:33:02;98237.47;;;27.94;45.26
68996;BME280;56056;48.990;12.146;2022-07-21T12:35:30;98238.06;;;27.45;46.96
68996;BME280;56056;48.990;12.146;2022-07-21T12:38:02;98235.63;;;27.39;47.77
68996;BME280;56056;48.990;12.146;2022-07-21T12:40:30;98234.25;;;27.41;48.66
68996;BME280;56056;48.990;12.146;2022-07-21T12:43:13;98223.44;;;26.95;47.77
68996;BME280;56056;48.990;12.146;2022-07-21T12:45:50;98233.44;;;26.37;49.65
68996;BME280;56056;48.990;12.146;2022-07-21T12:48:17;98223.94;;;26.14;50.65
68996;BME280;56056;48.990;12.146;2022-07-21T12:51:06;98226.13;;;26.32;51.58
68996;BME280;56056;48.990;12.146;2022-07-21T12:53:33;98212.09;;;26.20;50.73
68996;BME280;56056;48.990;12.146;2022-07-21T12:55:59;98213.94;;;26.09;51.05